Time;durP1;ratioP1;P1;durP2;ratioP2;P2;SDS_P1;SDS_P2;PMS_P1;PMS_P2;Temp;Humidity;BMP_temperature;BMP_pressure;BME280_temperature;BME280_humidity;BME280_pressure;Samples;Min_cycle;Max_cycle;Signal;HPM_P1;HPM_P2
2022/07/08 00:01:33;;;;;;;1999.90;999.90;;;15.40;99.90;;;;;;4992774;28;20470;-69
2022/07/08 00:03:59;;;;;;;1999.90;999.90;;;15.30;99.90;;;;;;4992690;28;20166;-71
2022/07/08 00:06:25;;;;;;;1999.90;999.90;;;15.30;99.90;;;;;;4992440;28;20895;-71
2022/07/08 00:08:51;;;;;;;1999.90;999.90;;;15.30;99.90;;;;;;4992482;28;20524;-71
2022/07/08 00:11:16;;;;;;;1999.90;999.90;;;15.30;99.90;;;;;;4992497;28;20176;-71
2022/07/08 00:13:42;;;;;;;1999.90;999.90;;;15.30;99.90;;;;;;4992489;28;20634;-71
2022/07/08 00:16:08;;;;;;;1999.90;999.90;;;15.40;99.90;;;;;;4992191;28;20297;-71
2022/07/08 00:18:33;;;;;;;1999.90;999.90;;;15.30;99.90;;;;;;4992359;28;20258;-71
2022/07/08 00:20:59;;;;;;;1999.90;999.90;;;15.30;99.90;;;;;;4992586;28;20176;-71
2022/07/08 00:23:24;;;;;;;1999.90;999.90;;;15.30;99.90;;;;;;4992557;28;20177;-71
2022/07/08 00:25:50;;;;;;;1999.90;999.90;;;15.30;99.90;;;;;;4992585;28;20260;-71
2022/07/08 00:28:16;;;;;;;1999.90;999.90;;;15.30;99.90;;;;;;4996033;28;20203;-71
2022/07/08 00:30:41;;;;;;;1999.90;999.90;;;15.20;99.90;;;;;;4996323;28;20181;-71
2022/07/08 00:33:07;;;;;;;1999.90;999.90;;;15.20;99.90;;;;;;4996253;28;20200;-71
2022/07/08 00:35:32;;;;;;;1999.90;999.90;;;15.10;99.90;;;;;;4996286;28;20181;-71
2022/07/08 00:37:58;;;;;;;1999.90;999.90;;;15.10;99.90;;;;;;4995767;28;20598;-71
2022/07/08 00:40:24;;;;;;;1999.90;999.90;;;15.20;99.90;;;;;;4996044;28;20175;-71
2022/07/08 00:42:49;;;;;;;1999.90;999.90;;;15.10;99.90;;;;;;4996020;28;20736;-71
2022/07/08 00:45:16;;;;;;;1999.90;999.90;;;15.20;99.90;;;;;;4995992;28;20220;-71
2022/07/08 00:47:41;;;;;;;1999.90;999.90;;;15.10;99.90;;;;;;4995741;28;20180;-70
2022/07/08 00:50:09;;;;;;;1999.90;999.90;;;15.20;99.90;;;;;;4995708;28;20948;-71
2022/07/08 00:52:38;;;;;;;1999.90;999.90;;;15.20;99.90;;;;;;4995938;28;20183;-70
2022/07/08 00:55:05;;;;;;;1999.90;999.90;;;15.20;99.90;;;;;;4995844;28;20416;-69
2022/07/08 00:57:32;;;;;;;1999.90;999.90;;;15.20;99.90;;;;;;4995426;28;20453;-70
2022/07/08 00:59:58;;;;;;;1999.90;999.90;;;15.20;99.90;;;;;;4995694;28;20432;-70
2022/07/08 01:02:24;;;;;;;1999.90;999.90;;;15.20;99.90;;;;;;4995760;28;20444;-70
2022/07/08 01:04:50;;;;;;;1999.90;999.90;;;15.30;99.90;;;;;;4995674;28;20247;-70
2022/07/08 01:07:17;;;;;;;1999.90;999.90;;;15.30;99.90;;;;;;4995294;28;20409;-70
2022/07/08 01:09:42;;;;;;;1999.90;999.90;;;15.30;99.90;;;;;;4995364;28;20433;-69
2022/07/08 01:12:08;;;;;;;1999.90;999.90;;;15.30;99.90;;;;;;4995442;28;20422;-71
2022/07/08 01:14:34;;;;;;;1999.90;999.90;;;15.30;99.90;;;;;;4995480;28;20264;-71
2022/07/08 01:16:59;;;;;;;1999.90;999.90;;;15.30;99.90;;;;;;4995098;28;20439;-70
2022/07/08 01:19:25;;;;;;;1999.90;999.90;;;15.30;99.90;;;;;;4995260;28;20214;-69
2022/07/08 01:21:50;;;;;;;1999.90;999.90;;;15.30;99.90;;;;;;4995450;28;20255;-69
2022/07/08 01:24:18;;;;;;;1999.90;999.90;;;15.20;99.90;;;;;;4995212;28;20179;-69
2022/07/08 01:26:44;;;;;;;1999.90;999.90;;;15.20;99.90;;;;;;4995015;28;20170;-71
2022/07/08 01:29:11;;;;;;;1999.90;999.90;;;15.20;99.90;;;;;;4995149;28;20992;-70
2022/07/08 01:31:37;;;;;;;1999.90;999.90;;;15.20;99.90;;;;;;4995189;28;20408;-70
2022/07/08 01:34:03;;;;;;;1999.90;999.90;;;15.20;99.90;;;;;;4995109;28;20432;-70
2022/07/08 01:36:29;;;;;;;1999.90;999.90;;;15.20;99.90;;;;;;4994831;28;20178;-70
2022/07/08 01:38:54;;;;;;;1999.90;999.90;;;15.20;99.90;;;;;;4993849;28;20247;-69
2022/07/08 01:41:20;;;;;;;1999.90;999.90;;;15.20;99.90;;;;;;4994963;28;20239;-69
2022/07/08 01:43:45;;;;;;;1999.90;999.90;;;15.20;99.90;;;;;;4995002;28;20550;-69
2022/07/08 01:46:11;;;;;;;1999.90;999.90;;;15.20;99.90;;;;;;4994608;28;20244;-70
2022/07/08 01:48:37;;;;;;;1999.90;999.90;;;15.10;99.90;;;;;;4994672;28;20240;-70
2022/07/08 01:51:03;;;;;;;1999.90;999.90;;;15.10;99.90;;;;;;4994833;28;20580;-70
2022/07/08 01:53:28;;;;;;;1999.90;999.90;;;15.10;99.90;;;;;;4994696;28;20200;-70
2022/07/08 01:55:54;;;;;;;1999.90;999.90;;;15.10;99.90;;;;;;4994923;28;20189;-70
2022/07/08 01:58:20;;;;;;;1999.90;999.90;;;15.10;99.90;;;;;;4994440;28;20217;-71
2022/07/08 02:00:45;;;;;;;1999.90;999.90;;;15.10;99.90;;;;;;4994755;28;20179;-71
2022/07/08 02:03:11;;;;;;;1999.90;999.90;;;15.10;99.90;;;;;;4994660;28;20168;-71
2022/07/08 02:05:37;;;;;;;1999.90;999.90;;;15.20;99.90;;;;;;4994618;28;20627;-70
2022/07/08 02:08:03;;;;;;;1999.90;999.90;;;15.20;99.90;;;;;;4994117;28;20176;-69
2022/07/08 02:12:18;;;;;;;1999.90;999.90;;;15.10;99.90;;;;;;4994427;28;20253;-70
2022/07/08 02:13:16;;;;;;;1999.90;999.90;;;15.20;99.90;;;;;;4994373;28;20415;-70
2022/07/08 02:15:43;;;;;;;1999.90;999.90;;;15.20;99.90;;;;;;4994402;28;20533;-70
2022/07/08 02:18:08;;;;;;;1999.90;999.90;;;15.10;99.90;;;;;;4993917;28;22025;-70
2022/07/08 02:20:34;;;;;;;1999.90;999.90;;;15.10;99.90;;;;;;4994176;28;20506;-71
2022/07/08 02:22:59;;;;;;;1999.90;999.90;;;15.10;99.90;;;;;;4994193;28;20519;-70
2022/07/08 02:25:25;;;;;;;1999.90;999.90;;;15.10;99.90;;;;;;4994234;28;20181;-70
2022/07/08 02:27:51;;;;;;;1999.90;999.90;;;15.10;99.90;;;;;;4993811;28;20184;-69
2022/07/08 02:30:16;;;;;;;1999.90;999.90;;;15.00;99.90;;;;;;4994114;28;20176;-70
2022/07/08 02:32:42;;;;;;;1999.90;999.90;;;15.10;99.90;;;;;;4994049;28;20175;-69
2022/07/08 02:35:08;;;;;;;1999.90;999.90;;;15.00;99.90;;;;;;4993966;28;20170;-70
2022/07/08 02:37:33;;;;;;;1999.90;999.90;;;15.00;99.90;;;;;;4993603;28;20217;-70
2022/07/08 02:39:59;;;;;;;1999.90;999.90;;;15.00;99.90;;;;;;4993864;28;20275;-71
2022/07/08 02:42:24;;;;;;;1999.90;999.90;;;15.10;99.90;;;;;;4993990;28;20198;-70
2022/07/08 02:44:50;;;;;;;1999.90;999.90;;;15.00;99.90;;;;;;4993821;28;20184;-69
2022/07/08 02:47:16;;;;;;;1999.90;999.90;;;15.00;99.90;;;;;;4993436;28;20256;-70
2022/07/08 02:49:41;;;;;;;1999.90;999.90;;;15.00;99.90;;;;;;4993453;28;20691;-70
2022/07/08 02:52:07;;;;;;;1999.90;999.90;;;15.00;99.90;;;;;;4993590;28;20178;-69
2022/07/08 02:54:33;;;;;;;1999.90;999.90;;;15.00;99.90;;;;;;4993649;28;20173;-69
2022/07/08 02:56:58;;;;;;;1999.90;999.90;;;14.90;99.90;;;;;;4993230;28;20906;-70
2022/07/08 02:59:24;;;;;;;1999.90;999.90;;;14.90;99.90;;;;;;4993493;28;20205;-70
2022/07/08 03:01:50;;;;;;;1999.90;999.90;;;14.80;99.90;;;;;;4993547;28;20263;-70
2022/07/08 03:04:15;;;;;;;1999.90;999.90;;;14.80;99.90;;;;;;4993416;28;20175;-70
2022/07/08 03:06:41;;;;;;;1999.90;999.90;;;14.80;99.90;;;;;;4993061;28;20299;-70
2022/07/08 03:09:07;;;;;;;1999.90;999.90;;;14.80;99.90;;;;;;4993295;28;20200;-70
2022/07/08 03:11:32;;;;;;;1999.90;999.90;;;14.80;99.90;;;;;;4993445;28;20841;-70
2022/07/08 03:13:58;;;;;;;1999.90;999.90;;;14.80;99.90;;;;;;4993421;28;20188;-70
2022/07/08 03:16:24;;;;;;;1999.90;999.90;;;14.80;99.90;;;;;;4993012;28;20259;-70
2022/07/08 03:18:49;;;;;;;1999.90;999.90;;;14.80;99.90;;;;;;4992958;28;20792;-71
2022/07/08 03:21:15;;;;;;;1999.90;999.90;;;14.70;99.90;;;;;;4993185;28;20663;-70
2022/07/08 03:23:41;;;;;;;1999.90;999.90;;;14.60;99.90;;;;;;4993119;28;20164;-69
2022/07/08 03:26:07;;;;;;;1999.90;999.90;;;14.60;99.90;;;;;;4992811;28;20298;-70
2022/07/08 03:28:32;;;;;;;1999.90;999.90;;;14.60;99.90;;;;;;4992986;28;20432;-69
2022/07/08 03:30:58;;;;;;;1999.90;999.90;;;14.50;99.90;;;;;;4993102;28;20185;-70
2022/07/08 03:33:23;;;;;;;1999.90;999.90;;;14.50;99.90;;;;;;4992969;28;20173;-70
2022/07/08 03:35:49;;;;;;;1999.90;999.90;;;14.50;99.90;;;;;;4992732;28;20173;-71
2022/07/08 03:38:15;;;;;;;1999.90;999.90;;;14.40;99.90;;;;;;4991525;28;20215;-71
2022/07/08 03:43:25;;;;;;;1999.90;999.90;;;14.30;99.90;;;;;;4992966;28;20433;-71
2022/07/08 03:45:51;;;;;;;1999.90;999.90;;;14.20;99.90;;;;;;4992747;28;20925;-71
2022/07/08 03:50:44;;;;;;;1999.90;999.90;;;14.20;99.90;;;;;;4991467;28;20216;-72
2022/07/08 03:53:10;;;;;;;1999.90;999.90;;;14.20;99.90;;;;;;4992735;28;20403;-72
2022/07/08 03:55:36;;;;;;;1999.90;999.90;;;14.20;99.90;;;;;;4992658;28;20254;-71
2022/07/08 03:58:02;;;;;;;1999.90;999.90;;;14.30;99.90;;;;;;4992460;28;20892;-72
2022/07/08 04:00:27;;;;;;;1999.90;999.90;;;14.30;99.90;;;;;;4992334;28;20194;-71
2022/07/08 04:02:53;;;;;;;1999.90;999.90;;;14.30;99.90;;;;;;4992410;28;20232;-71
2022/07/08 04:05:19;;;;;;;1999.90;999.90;;;14.30;99.90;;;;;;4992569;28;20253;-70
2022/07/08 04:07:44;;;;;;;1999.90;999.90;;;14.20;99.90;;;;;;4992302;28;20176;-71
2022/07/08 04:10:10;;;;;;;1999.90;999.90;;;14.30;99.90;;;;;;4992520;28;20191;-71
2022/07/08 04:12:35;;;;;;;1999.90;999.90;;;14.30;99.90;;;;;;4992621;28;20178;-71
2022/07/08 04:15:01;;;;;;;1999.90;999.90;;;14.30;99.90;;;;;;4992467;28;20615;-71
2022/07/08 04:17:27;;;;;;;1999.90;999.90;;;14.30;99.90;;;;;;4992169;28;20172;-71
2022/07/08 04:19:53;;;;;;;1999.90;999.90;;;14.20;99.90;;;;;;4992433;28;20556;-72
2022/07/08 04:22:18;;;;;;;1999.90;999.90;;;14.20;99.90;;;;;;4992503;28;20170;-70
2022/07/08 04:24:44;;;;;;;1999.90;999.90;;;14.20;99.90;;;;;;4992557;28;20175;-71
2022/07/08 04:27:09;;;;;;;1999.90;999.90;;;14.20;99.90;;;;;;4992148;28;20256;-72
2022/07/08 04:29:35;;;;;;;1999.90;999.90;;;14.20;99.90;;;;;;4992300;28;20555;-72
2022/07/08 04:32:01;;;;;;;1999.90;999.90;;;14.20;99.90;;;;;;4992353;28;20169;-72
2022/07/08 04:34:26;;;;;;;1999.90;999.90;;;14.20;99.90;;;;;;4992352;28;20692;-71
2022/07/08 04:36:52;;;;;;;1999.90;999.90;;;14.20;99.90;;;;;;4992053;28;20172;-72
2022/07/08 04:39:17;;;;;;;1999.90;999.90;;;14.20;99.90;;;;;;4992195;28;20209;-72
2022/07/08 04:41:43;;;;;;;1999.90;999.90;;;14.20;99.90;;;;;;4992300;28;20167;-72
2022/07/08 04:44:09;;;;;;;1999.90;999.90;;;14.20;99.90;;;;;;4992249;28;20169;-71
2022/07/08 04:46:35;;;;;;;1999.90;999.90;;;14.20;99.90;;;;;;4991880;28;20292;-71
2022/07/08 04:49:00;;;;;;;1999.90;999.90;;;14.20;99.90;;;;;;4992019;28;20547;-72
2022/07/08 04:51:26;;;;;;;1999.90;999.90;;;14.20;99.90;;;;;;4992263;28;20284;-72
2022/07/08 04:53:51;;;;;;;1999.90;999.90;;;14.20;99.90;;;;;;4992176;28;20181;-72
2022/07/08 04:56:17;;;;;;;1999.90;999.90;;;14.30;99.90;;;;;;4991903;28;20173;-72
2022/07/08 04:58:43;;;;;;;1999.90;999.90;;;14.30;99.90;;;;;;4992161;28;20204;-73
2022/07/08 05:01:08;;;;;;;1999.90;999.90;;;14.20;99.90;;;;;;4992099;28;20229;-72
2022/07/08 05:03:34;;;;;;;1999.90;999.90;;;14.20;99.90;;;;;;4992007;28;20162;-72
2022/07/08 05:06:00;;;;;;;1999.90;999.90;;;14.20;99.90;;;;;;4991823;28;20176;-71
2022/07/08 05:08:25;;;;;;;1999.90;999.90;;;14.20;99.90;;;;;;4991968;28;20172;-71
2022/07/08 05:10:51;;;;;;;1999.90;999.90;;;14.20;99.90;;;;;;4992111;28;20974;-71
2022/07/08 05:13:17;;;;;;;1999.90;999.90;;;14.30;99.90;;;;;;4992940;28;20202;-71
2022/07/08 05:15:43;;;;;;;1999.90;999.90;;;14.30;99.90;;;;;;4995306;28;20214;-72
2022/07/08 05:18:08;;;;;;;1999.90;999.90;;;14.40;99.90;;;;;;4995144;28;20415;-72
2022/07/08 05:20:34;;;;;;;1999.90;999.90;;;14.40;99.90;;;;;;4995343;28;20440;-72
2022/07/08 05:22:59;;;;;;;1999.90;999.90;;;14.50;99.90;;;;;;4995305;28;20179;-73
2022/07/08 05:25:25;;;;;;;1999.90;999.90;;;14.50;99.90;;;;;;4995332;28;20224;-71
2022/07/08 05:27:51;;;;;;;1999.90;999.90;;;14.60;99.90;;;;;;4994989;28;20174;-72
2022/07/08 05:30:16;;;;;;;1999.90;999.90;;;14.60;99.90;;;;;;4995152;28;20612;-72
2022/07/08 05:32:42;;;;;;;1999.90;999.90;;;14.60;99.90;;;;;;4995091;28;20197;-72
2022/07/08 05:35:09;;;;;;;1999.90;999.90;;;14.60;99.90;;;;;;4995184;28;20245;-71
2022/07/08 05:37:37;;;;;;;1999.90;999.90;;;14.60;99.90;;;;;;4994730;28;20191;-71
2022/07/08 05:40:10;;;;;;;1999.90;999.90;;;14.70;99.90;;;;;;4995048;28;20490;-71
2022/07/08 05:42:36;;;;;;;1999.90;999.90;;;14.80;99.90;;;;;;4995018;28;20413;-71
2022/07/08 05:45:02;;;;;;;1999.90;999.90;;;14.80;99.90;;;;;;4995021;28;20411;-72
2022/07/08 05:47:28;;;;;;;1999.90;999.90;;;14.90;99.90;;;;;;4994601;28;20419;-72
2022/07/08 05:49:53;;;;;;;1999.90;999.90;;;15.00;99.90;;;;;;4994848;28;20479;-72
2022/07/08 05:52:19;;;;;;;1999.90;999.90;;;15.10;99.90;;;;;;4995030;28;20541;-72
2022/07/08 05:54:45;;;;;;;1999.90;999.90;;;15.10;99.90;;;;;;4994809;28;20171;-71
2022/07/08 05:57:12;;;;;;;1999.90;999.90;;;15.20;99.90;;;;;;4994388;28;20616;-72
2022/07/08 05:59:37;;;;;;;1999.90;999.90;;;15.30;99.90;;;;;;4994536;28;20462;-72
2022/07/08 06:02:03;;;;;;;1999.90;999.90;;;15.40;99.90;;;;;;4994561;28;20405;-71
2022/07/08 06:04:29;;;;;;;1999.90;999.90;;;15.60;99.90;;;;;;4994597;28;20168;-72
2022/07/08 06:06:55;;;;;;;1999.90;999.90;;;15.70;99.90;;;;;;4994188;28;20485;-72
2022/07/08 06:09:21;;;;;;;1999.90;999.90;;;15.80;99.90;;;;;;4994524;28;20336;-70
2022/07/08 06:11:47;;;;;;;1999.90;999.90;;;15.90;99.90;;;;;;4994569;28;20217;-72
2022/07/08 06:14:12;;;;;;;1999.90;999.90;;;16.00;99.90;;;;;;4994518;28;20180;-72
2022/07/08 06:16:38;;;;;;;1999.90;999.90;;;15.90;99.90;;;;;;4994112;28;20673;-72
2022/07/08 06:19:03;;;;;;;1999.90;999.90;;;16.00;99.90;;;;;;4994193;28;20200;-72
2022/07/08 06:21:29;;;;;;;1999.90;999.90;;;16.00;99.90;;;;;;4994405;28;20166;-72
2022/07/08 06:23:55;;;;;;;1999.90;999.90;;;16.00;99.90;;;;;;4993861;28;20193;-71
2022/07/08 06:26:20;;;;;;;1999.90;999.90;;;16.00;99.90;;;;;;4993909;28;20168;-72
2022/07/08 06:28:46;;;;;;;1999.90;999.90;;;16.10;99.90;;;;;;4994104;28;20201;-72
2022/07/08 06:31:11;;;;;;;1999.90;999.90;;;16.10;99.90;;;;;;4994149;28;20223;-72
2022/07/08 06:33:37;;;;;;;1999.90;999.90;;;16.10;99.90;;;;;;4994121;28;20170;-72
2022/07/08 06:36:03;;;;;;;1999.90;999.90;;;16.10;99.90;;;;;;4993723;28;20657;-73
2022/07/08 06:38:28;;;;;;;1999.90;999.90;;;16.20;99.90;;;;;;4993859;28;20217;-72
2022/07/08 06:40:54;;;;;;;1999.90;999.90;;;16.20;99.90;;;;;;4993859;28;20434;-71
2022/07/08 06:43:20;;;;;;;1999.90;999.90;;;16.20;99.90;;;;;;4993871;28;20170;-71
2022/07/08 06:45:46;;;;;;;1999.90;999.90;;;16.20;99.90;;;;;;4993947;28;20650;-71
2022/07/08 06:48:12;;;;;;;1999.90;999.90;;;16.30;99.90;;;;;;4993589;28;20205;-70
2022/07/08 06:50:38;;;;;;;1999.90;999.90;;;16.40;99.90;;;;;;4993516;28;20530;-71
2022/07/08 06:53:03;;;;;;;1999.90;999.90;;;16.50;99.90;;;;;;4993655;28;20842;-71
2022/07/08 06:55:29;;;;;;;1999.90;999.90;;;16.70;99.90;;;;;;4993643;28;20171;-71
2022/07/08 06:57:54;;;;;;;1999.90;999.90;;;16.70;99.90;;;;;;4993276;28;20203;-72
2022/07/08 07:00:22;;;;;;;1999.90;999.90;;;16.90;99.90;;;;;;4993589;28;20230;-72
2022/07/08 07:02:48;;;;;;;1999.90;999.90;;;17.00;99.90;;;;;;4993594;28;20160;-71
2022/07/08 07:05:13;;;;;;;1999.90;999.90;;;17.00;99.90;;;;;;4993498;28;20905;-71
2022/07/08 07:07:39;;;;;;;1999.90;999.90;;;16.80;99.90;;;;;;4993156;28;20406;-72
2022/07/08 07:10:05;;;;;;;1999.90;999.90;;;16.80;99.90;;;;;;4993143;28;20194;-72
2022/07/08 07:12:31;;;;;;;1999.90;999.90;;;16.80;99.90;;;;;;4993284;28;20201;-73
2022/07/08 07:14:57;;;;;;;1999.90;999.90;;;16.80;99.90;;;;;;4993394;28;20960;-73
2022/07/08 07:17:22;;;;;;;1999.90;999.90;;;16.70;99.90;;;;;;4993028;28;20181;-70
2022/07/08 07:19:49;;;;;;;1999.90;999.90;;;16.80;99.90;;;;;;4993204;28;20194;-71
2022/07/08 07:22:16;;;;;;;1999.90;999.90;;;16.70;99.90;;;;;;4993184;28;20197;-72
2022/07/08 07:24:42;;;;;;;1999.90;999.90;;;16.70;99.90;;;;;;4993035;28;20417;-71
2022/07/08 07:27:07;;;;;;;1999.90;999.90;;;16.60;99.90;;;;;;4992781;28;20412;-71
2022/07/08 07:29:34;;;;;;;1999.90;999.90;;;16.60;99.90;;;;;;4992954;28;20480;-71
2022/07/08 07:31:59;;;;;;;1999.90;999.90;;;16.70;99.90;;;;;;4992973;28;20499;-71
2022/07/08 07:34:25;;;;;;;1999.90;999.90;;;16.80;99.90;;;;;;4993032;28;20870;-71
2022/07/08 07:36:51;;;;;;;1999.90;999.90;;;16.80;99.90;;;;;;4991890;28;20182;-72
2022/07/08 07:39:17;;;;;;;1999.90;999.90;;;16.90;99.90;;;;;;4992714;28;20483;-71
2022/07/08 07:41:42;;;;;;;1999.90;999.90;;;17.00;99.90;;;;;;4992920;28;20162;-71
2022/07/08 07:44:08;;;;;;;1999.90;999.90;;;17.30;99.90;;;;;;4992812;28;20552;-71
2022/07/08 07:46:34;;;;;;;1999.90;999.90;;;17.50;99.90;;;;;;4992596;28;20176;-71
2022/07/08 07:49:00;;;;;;;1999.90;999.90;;;17.40;99.90;;;;;;4992593;28;20228;-71
2022/07/08 07:51:26;;;;;;;1999.90;999.90;;;17.20;99.90;;;;;;4992689;28;20409;-71
2022/07/08 07:53:52;;;;;;;1999.90;999.90;;;17.20;99.90;;;;;;4992627;28;20427;-71
2022/07/08 07:56:18;;;;;;;1999.90;999.90;;;17.20;99.90;;;;;;4992416;28;20188;-72
2022/07/08 07:58:43;;;;;;;1999.90;999.90;;;17.20;99.90;;;;;;4992440;28;20463;-73
2022/07/08 08:01:09;;;;;;;1999.90;999.90;;;17.20;99.90;;;;;;4992651;28;20169;-71
2022/07/08 08:03:35;;;;;;;1999.90;999.90;;;17.50;99.90;;;;;;4992639;28;20414;-71
2022/07/08 08:06:01;;;;;;;1999.90;999.90;;;17.70;99.90;;;;;;4992382;28;20565;-71
2022/07/08 08:08:31;;;;;;;1999.90;999.90;;;17.90;99.90;;;;;;4992524;28;20549;-73
2022/07/08 08:10:57;;;;;;;1999.90;999.90;;;18.00;99.90;;;;;;4992604;28;20407;-73
2022/07/08 08:13:23;;;;;;;1999.90;999.90;;;17.90;99.90;;;;;;4992489;28;20621;-71
2022/07/08 08:15:48;;;;;;;1999.90;999.90;;;17.70;99.90;;;;;;4992445;28;20500;-72
2022/07/08 08:18:14;;;;;;;1999.90;999.90;;;17.90;99.90;;;;;;4992171;28;20639;-72
2022/07/08 08:20:40;;;;;;;1999.90;999.90;;;18.20;99.90;;;;;;4992485;28;20174;-74
2022/07/08 08:23:07;;;;;;;1999.90;999.90;;;18.50;99.90;;;;;;4990278;28;20171;-73
2022/07/08 08:25:34;;;;;;;1999.90;999.90;;;18.80;99.90;;;;;;4991422;28;20816;-73
2022/07/08 08:27:59;;;;;;;1999.90;999.90;;;19.00;99.90;;;;;;4991319;28;20435;-73
2022/07/08 08:30:25;;;;;;;1999.90;999.90;;;19.40;99.90;;;;;;4991957;28;20440;-73
2022/07/08 08:32:51;;;;;;;1999.90;999.90;;;19.50;99.90;;;;;;4991183;28;20700;-73
2022/07/08 08:35:17;;;;;;;1999.90;999.90;;;19.60;99.90;;;;;;4991750;28;20177;-73
2022/07/08 08:37:42;;;;;;;1999.90;999.90;;;19.60;99.90;;;;;;4991197;28;20952;-73
2022/07/08 08:40:11;;;;;;;1999.90;999.90;;;19.50;99.90;;;;;;4991748;28;20278;-72
2022/07/08 08:42:38;;;;;;;1999.90;999.90;;;19.30;99.90;;;;;;4991626;28;20197;-72
2022/07/08 08:45:04;;;;;;;1999.90;999.90;;;19.50;99.90;;;;;;4991837;28;20401;-72
2022/07/08 08:47:31;;;;;;;1999.90;999.90;;;19.60;99.90;;;;;;4992886;28;20428;-72
2022/07/08 08:50:53;;;;;;;1999.90;999.90;;;19.70;99.90;;;;;;4991819;28;20535;-73
2022/07/08 08:52:55;;;;;;;1999.90;999.90;;;19.70;99.90;;;;;;4995081;28;20424;-72
2022/07/08 08:55:27;;;;;;;1999.90;999.90;;;19.70;99.90;;;;;;4994371;28;20420;-72
2022/07/08 08:58:04;;;;;;;1999.90;999.90;;;19.90;99.90;;;;;;4994374;28;20487;-72
2022/07/08 09:00:32;;;;;;;1999.90;999.90;;;19.90;99.90;;;;;;4994545;28;20430;-72
2022/07/08 09:02:58;;;;;;;1999.90;999.90;;;20.00;99.90;;;;;;4994816;28;21200;-71
2022/07/08 09:05:25;;;;;;;1999.90;999.90;;;20.00;99.90;;;;;;4994494;28;20435;-72
2022/07/08 09:07:51;;;;;;;1999.90;999.90;;;19.90;99.90;;;;;;4994525;28;20925;-73
2022/07/08 09:10:18;;;;;;;1999.90;999.90;;;20.00;99.90;;;;;;4993487;28;20462;-72
2022/07/08 09:13:23;;;;;;;1999.90;999.90;;;20.00;99.90;;;;;;4994090;28;20419;-72
2022/07/08 09:15:57;;;;;;;1999.90;999.90;;;20.20;99.90;;;;;;4933881;29;20447;-74
2022/07/08 09:18:27;;;;;;;1999.90;999.90;;;20.30;99.90;;;;;;4986461;28;20455;-72
2022/07/08 09:20:55;;;;;;;1999.90;999.90;;;20.40;99.90;;;;;;4994120;28;20412;-72
2022/07/08 09:23:32;;;;;;;1999.90;999.90;;;20.50;99.90;;;;;;4994112;28;20774;-72
2022/07/08 09:26:02;;;;;;;1999.90;999.90;;;20.50;99.90;;;;;;4993972;28;20409;-72
2022/07/08 09:28:36;;;;;;;1999.90;999.90;;;20.40;99.90;;;;;;4993742;28;20408;-73
2022/07/08 09:31:14;;;;;;;1999.90;999.90;;;20.30;99.90;;;;;;4994406;28;20407;-72
2022/07/08 09:33:40;;;;;;;1999.90;999.90;;;20.30;99.90;;;;;;4994520;28;20412;-72
2022/07/08 09:36:08;;;;;;;1999.90;999.90;;;20.40;99.90;;;;;;4993465;28;20436;-72
2022/07/08 09:38:38;;;;;;;1999.90;999.90;;;20.40;99.90;;;;;;4993930;28;20463;-76
2022/07/08 09:44:03;;;;;;;1999.90;999.90;;;20.60;99.90;;;;;;4990328;28;20410;-76
2022/07/08 09:46:36;;;;;;;1999.90;999.90;;;20.80;99.90;;;;;;4993395;28;20906;-76
2022/07/08 09:49:02;;;;;;;1999.90;999.90;;;20.80;99.90;;;;;;5036610;23;20209;-71
2022/07/08 09:51:30;;;;;;;1999.90;999.90;;;20.80;99.90;;;;;;4993750;28;20564;-74
2022/07/08 09:54:09;;;;;;;1999.90;999.90;;;20.80;99.90;;;;;;4994784;28;20257;-74
2022/07/08 09:56:34;;;;;;;1999.90;999.90;;;20.60;99.90;;;;;;4993095;28;21034;-72
2022/07/08 09:59:01;;;;;;;1999.90;999.90;;;20.60;99.90;;;;;;4992864;28;20545;-73
2022/07/08 10:01:28;;;;;;;1999.90;999.90;;;20.70;99.90;;;;;;4993904;28;20170;-74
2022/07/08 10:03:54;;;;;;;1999.90;999.90;;;21.10;99.90;;;;;;4993863;28;20927;-72
2022/07/08 10:06:20;;;;;;;1999.90;999.90;;;21.40;99.90;;;;;;4993747;28;20378;-72
2022/07/08 10:08:45;;;;;;;1999.90;999.90;;;21.50;99.90;;;;;;4993850;28;20422;-74
2022/07/08 10:11:13;;;;;;;1999.90;999.90;;;21.30;99.90;;;;;;4992693;28;20225;-74
2022/07/08 10:13:40;;;;;;;1999.90;999.90;;;20.90;99.90;;;;;;4993686;28;20550;-72
2022/07/08 10:16:09;;;;;;;1999.90;999.90;;;20.80;99.90;;;;;;4993007;28;20414;-72
2022/07/08 10:18:51;;;;;;;1999.90;999.90;;;21.10;99.90;;;;;;4993052;28;20515;-72
2022/07/08 10:21:20;;;;;;;1999.90;999.90;;;21.40;99.90;;;;;;4993600;28;20854;-74
2022/07/08 10:23:49;;;;;;;1999.90;999.90;;;21.40;99.90;;;;;;4993634;28;20434;-74
2022/07/08 10:26:42;;;;;;;1999.90;999.90;;;21.40;99.90;;;;;;4991307;28;20498;-73
2022/07/08 10:29:11;;;;;;;1999.90;999.90;;;21.40;99.90;;;;;;4993149;28;20797;-73
2022/07/08 10:31:43;;;;;;;1999.90;999.90;;;21.60;99.90;;;;;;4993420;28;20406;-73
2022/07/08 10:34:09;;;;;;;1999.90;999.90;;;22.00;99.90;;;;;;4992565;28;20435;-73
2022/07/08 10:36:46;;;;;;;1999.90;999.90;;;22.50;99.90;;;;;;4992615;28;20383;-72
2022/07/08 10:39:13;;;;;;;1999.90;999.90;;;23.10;99.90;;;;;;4993178;28;21030;-73
2022/07/08 10:41:38;;;;;;;1999.90;999.90;;;23.50;99.90;;;;;;4992707;28;20405;-74
2022/07/08 10:44:05;;;;;;;1999.90;999.90;;;23.80;99.90;;;;;;4993047;28;20508;-72
2022/07/08 10:46:31;;;;;;;1999.90;999.90;;;24.20;99.90;;;;;;4992796;28;20284;-72
2022/07/08 10:49:00;;;;;;;1999.90;999.90;;;24.20;97.20;;;;;;4992261;28;20428;-74
2022/07/08 10:51:26;;;;;;;1999.90;999.90;;;24.30;96.00;;;;;;4992766;28;20478;-72
2022/07/08 10:54:02;;;;;;;1999.90;999.90;;;24.10;94.70;;;;;;4992661;28;20414;-72
2022/07/08 10:56:57;;;;;;;1999.90;999.90;;;23.70;94.80;;;;;;4991822;28;20453;-73
2022/07/08 10:59:28;;;;;;;1999.90;999.90;;;23.40;95.20;;;;;;4992514;28;20432;-73
2022/07/08 11:02:11;;;;;;;1999.90;999.90;;;23.40;94.90;;;;;;4992808;28;20467;-73
2022/07/08 11:04:37;;;;;;;1999.90;999.90;;;23.30;95.00;;;;;;4992193;28;20414;-73
2022/07/08 11:07:20;;;;;;;1999.90;999.90;;;23.30;95.00;;;;;;4992421;28;20383;-73
2022/07/08 11:10:10;;;;;;;1999.90;999.90;;;23.50;95.30;;;;;;4992326;28;20403;-72
2022/07/08 11:12:45;;;;;;;1999.90;999.90;;;23.70;94.70;;;;;;4991140;28;20779;-72
2022/07/08 11:15:17;;;;;;;1999.90;999.90;;;24.00;92.80;;;;;;4992198;28;20429;-72
2022/07/08 11:17:46;;;;;;;1999.90;999.90;;;24.20;92.50;;;;;;4991916;28;20458;-74
2022/07/08 11:20:18;;;;;;;1999.90;999.90;;;24.50;91.60;;;;;;4992342;28;20419;-74
2022/07/08 11:22:45;;;;;;;1999.90;999.90;;;25.10;91.60;;;;;;4992557;28;20384;-74
2022/07/08 11:25:15;;;;;;;1999.90;999.90;;;25.20;87.60;;;;;;4991952;28;20416;-73
2022/07/08 11:27:41;;;;;;;1999.90;999.90;;;24.90;82.30;;;;;;4992072;28;20409;-73
2022/07/08 11:30:15;;;;;;;1999.90;999.90;;;25.00;83.60;;;;;;4992253;28;20492;-73
2022/07/08 11:32:42;;;;;;;1999.90;999.90;;;24.80;80.80;;;;;;4991658;28;20396;-73
2022/07/08 11:35:09;;;;;;;1999.90;999.90;;;24.70;81.20;;;;;;4992001;28;20420;-72
2022/07/08 11:37:42;;;;;;;1999.90;999.90;;;24.90;82.30;;;;;;4991662;28;20371;-73
2022/07/08 11:40:09;;;;;;;1999.90;999.90;;;24.90;81.10;;;;;;4991627;28;20911;-73
2022/07/08 11:42:37;;;;;;;1999.90;999.90;;;24.60;80.70;;;;;;4992145;28;20483;-72
2022/07/08 11:45:07;;;;;;;1999.90;999.90;;;24.90;83.20;;;;;;4992067;28;20419;-73
2022/07/08 11:47:33;;;;;;;1999.90;999.90;;;25.30;80.90;;;;;;4991438;28;20404;-74
2022/07/08 11:49:59;;;;;;;1999.90;999.90;;;26.00;81.90;;;;;;4991874;28;20444;-72
2022/07/08 11:52:27;;;;;;;1999.90;999.90;;;26.40;71.40;;;;;;4991927;28;20193;-74
2022/07/08 11:54:52;;;;;;;1999.90;999.90;;;26.70;72.50;;;;;;4991402;28;20173;-74
2022/07/08 11:57:21;;;;;;;1999.90;999.90;;;27.10;63.70;;;;;;4991549;28;20375;-74
2022/07/08 11:59:49;;;;;;;1999.90;999.90;;;27.00;60.60;;;;;;4991642;28;20244;-73
2022/07/08 12:02:20;;;;;;;1999.90;999.90;;;26.30;61.50;;;;;;4991480;28;20387;-73
2022/07/08 12:04:47;;;;;;;1999.90;999.90;;;25.90;66.20;;;;;;4992142;28;20383;-73
2022/07/08 12:07:28;;;;;;;1999.90;999.90;;;25.80;65.90;;;;;;4991522;28;20917;-73